createdAt,value
2017-01-01T00:00:07.375Z,1019.26
2017-01-01T00:00:17.367Z,1019.28
2017-01-01T00:00:27.361Z,1019.31
2017-01-01T00:00:37.353Z,1019.29
2017-01-01T00:00:47.346Z,1019.26
2017-01-01T00:00:57.338Z,1019.3
2017-01-01T00:01:07.332Z,1019.32
2017-01-01T00:01:17.328Z,1019.35
2017-01-01T00:01:27.322Z,1019.29
2017-01-01T00:01:37.315Z,1019.31
2017-01-01T00:01:47.304Z,1019.34
2017-01-01T00:01:57.302Z,1019.31
2017-01-01T00:02:07.293Z,1019.29
2017-01-01T00:02:17.290Z,1019.27
2017-01-01T00:02:27.279Z,1019.29
2017-01-01T00:02:37.279Z,1019.33
2017-01-01T00:02:47.268Z,1019.32
2017-01-01T00:02:57.260Z,1019.26
2017-01-01T00:03:07.255Z,1019.34
2017-01-01T00:03:17.245Z,1019.31
2017-01-01T00:03:27.658Z,1019.26
2017-01-01T00:03:37.363Z,1019.28
2017-01-01T00:03:47.229Z,1019.31
2017-01-01T00:03:57.218Z,1019.29
2017-01-01T00:04:07.631Z,1019.3
2017-01-01T00:04:17.205Z,1019.25
2017-01-01T00:04:27.333Z,1019.29
2017-01-01T00:04:37.194Z,1019.33
2017-01-01T00:04:47.183Z,1019.27
2017-01-01T00:04:57.178Z,1019.26
2017-01-01T00:05:07.200Z,1019.27
2017-01-01T00:05:17.167Z,1019.31
2017-01-01T00:05:27.159Z,1019.25
2017-01-01T00:05:37.148Z,1019.33
2017-01-01T00:05:47.144Z,1019.26
2017-01-01T00:05:57.138Z,1019.28
2017-01-01T00:06:07.133Z,1019.22
2017-01-01T00:06:17.128Z,1019.2
2017-01-01T00:06:27.118Z,1019.22
2017-01-01T00:06:37.113Z,1019.17
2017-01-01T00:06:47.105Z,1019.24
2017-01-01T00:06:57.097Z,1019.26
2017-01-01T00:07:07.092Z,1019.18
2017-01-01T00:07:17.085Z,1019.24
2017-01-01T00:07:27.081Z,1019.29
2017-01-01T00:07:37.072Z,1019.25
2017-01-01T00:07:47.063Z,1019.22
2017-01-01T00:07:57.059Z,1019.21
2017-01-01T00:08:07.050Z,1019.22
2017-01-01T00:08:17.463Z,1019.18
2017-01-01T00:08:27.038Z,1019.12
2017-01-01T00:08:37.446Z,1019.18
2017-01-01T00:08:47.023Z,1019.2
2017-01-01T00:08:57.016Z,1019.15
2017-01-01T00:09:07.011Z,1019.22
2017-01-01T00:09:17.002Z,1019.22
2017-01-01T00:09:26.998Z,1019.16
2017-01-01T00:09:36.992Z,1019.16
2017-01-01T00:09:46.985Z,1019.21
2017-01-01T00:09:56.978Z,1019.16
2017-01-01T00:10:06.970Z,1019.19
2017-01-01T00:10:16.966Z,1019.2
2017-01-01T00:10:26.955Z,1019.21
2017-01-01T00:10:36.953Z,1019.22
2017-01-01T00:10:46.941Z,1019.17
2017-01-01T00:10:56.933Z,1019.18
2017-01-01T00:11:06.928Z,1019.2
2017-01-01T00:11:16.924Z,1019.19
2017-01-01T00:11:26.918Z,1019.2
2017-01-01T00:11:36.909Z,1019.12
2017-01-01T00:11:46.902Z,1019.15
2017-01-01T00:11:56.896Z,1019.16
2017-01-01T00:12:06.916Z,1019.13
2017-01-01T00:12:16.883Z,1019.14
2017-01-01T00:12:26.875Z,1019.08
2017-01-01T00:12:36.870Z,1019.12
2017-01-01T00:12:46.863Z,1019.18
2017-01-01T00:12:56.852Z,1019.17
2017-01-01T00:13:06.848Z,1019.13
2017-01-01T00:13:16.841Z,1019.12
2017-01-01T00:13:26.838Z,1019.13
2017-01-01T00:13:36.827Z,1019.15
2017-01-01T00:13:46.823Z,1019.13
2017-01-01T00:13:56.816Z,1019.14
2017-01-01T00:14:06.809Z,1019.09
2017-01-01T00:14:16.802Z,1019.1
2017-01-01T00:14:26.795Z,1019.07
2017-01-01T00:14:36.789Z,1019.13
2017-01-01T00:14:46.784Z,1019.13
2017-01-01T00:14:56.785Z,1019.11
2017-01-01T00:15:06.769Z,1019.09
2017-01-01T00:15:16.781Z,1019.1
2017-01-01T00:15:26.756Z,1019.07
2017-01-01T00:15:36.749Z,1019.08
2017-01-01T00:15:46.745Z,1019.05
2017-01-01T00:15:56.735Z,1019.1
2017-01-01T00:16:06.728Z,1019.11
2017-01-01T00:16:16.720Z,1019.09
2017-01-01T00:16:26.717Z,1019.05
2017-01-01T00:16:36.708Z,1019.04
2017-01-01T00:16:46.703Z,1019.05
2017-01-01T00:16:56.693Z,1019.04
2017-01-01T00:17:06.689Z,1019.09
2017-01-01T00:17:16.681Z,1019.1
2017-01-01T00:17:26.673Z,1019.07
2017-01-01T00:17:36.668Z,1019.07
2017-01-01T00:17:46.662Z,1019.09
2017-01-01T00:17:56.657Z,1019.06
2017-01-01T00:18:06.645Z,1019.11
2017-01-01T00:18:16.640Z,1019.09
2017-01-01T00:18:26.637Z,1019.08
2017-01-01T00:18:36.634Z,1019.1
2017-01-01T00:18:46.622Z,1019.1
2017-01-01T00:18:56.616Z,1019.08
2017-01-01T00:19:06.605Z,1019.11
2017-01-01T00:19:16.630Z,1019.08
2017-01-01T00:19:26.597Z,1019.09
2017-01-01T00:19:36.721Z,1019.09
2017-01-01T00:19:46.582Z,1019.05
2017-01-01T00:19:56.575Z,1019.08
2017-01-01T00:20:06.568Z,1019.08
2017-01-01T00:20:16.562Z,1019.09
2017-01-01T00:20:26.555Z,1019.1
2017-01-01T00:20:36.549Z,1019.05
2017-01-01T00:20:46.542Z,1019.09
2017-01-01T00:20:56.530Z,1019.1
2017-01-01T00:21:06.524Z,1019.09
2017-01-01T00:21:16.521Z,1019.07
2017-01-01T00:21:26.517Z,1019.07
2017-01-01T00:21:36.506Z,1019.07
2017-01-01T00:21:46.629Z,1019.12
2017-01-01T00:21:56.492Z,1019.09
2017-01-01T00:22:06.483Z,1019.1
2017-01-01T00:22:16.479Z,1019.11
2017-01-01T00:22:26.471Z,1019.08
2017-01-01T00:22:36.465Z,1019.09
2017-01-01T00:22:46.462Z,1019.12
2017-01-01T00:22:56.451Z,1019.07
2017-01-01T00:23:06.444Z,1019.09
2017-01-01T00:23:16.439Z,1019.1
2017-01-01T00:23:26.433Z,1019.11
2017-01-01T00:23:36.429Z,1019.07
2017-01-01T00:23:46.423Z,1019.07
2017-01-01T00:23:56.415Z,1019.06
2017-01-01T00:24:06.404Z,1019.1
2017-01-01T00:24:16.398Z,1019.07
2017-01-01T00:24:26.393Z,1019.1
2017-01-01T00:24:36.386Z,1019.04
2017-01-01T00:24:46.379Z,1019.08
2017-01-01T00:24:56.370Z,1019.11
2017-01-01T00:25:06.361Z,1019.06
2017-01-01T00:25:16.358Z,1019.07
2017-01-01T00:25:26.353Z,1019.06
2017-01-01T00:25:36.762Z,1019
2017-01-01T00:25:46.338Z,1019.01
2017-01-01T00:25:56.331Z,1019
2017-01-01T00:26:06.326Z,1019.05
2017-01-01T00:26:16.318Z,1019.03
2017-01-01T00:26:26.312Z,1018.99
2017-01-01T00:26:36.306Z,1019.01
2017-01-01T00:26:46.297Z,1018.99
2017-01-01T00:26:56.292Z,1018.99
2017-01-01T00:27:06.280Z,1019.02
2017-01-01T00:27:16.695Z,1018.96
2017-01-01T00:27:26.272Z,1019.02
2017-01-01T00:27:36.264Z,1019.05
2017-01-01T00:27:46.260Z,1019.02
2017-01-01T00:27:56.275Z,1019
2017-01-01T00:28:06.243Z,1018.99
2017-01-01T00:28:16.236Z,1018.98
2017-01-01T00:28:26.228Z,1018.98
2017-01-01T00:28:36.222Z,1018.97
2017-01-01T00:28:46.218Z,1019.01
2017-01-01T00:28:56.214Z,1019
2017-01-01T00:29:06.203Z,1018.99
2017-01-01T00:29:16.196Z,1018.97
2017-01-01T00:29:26.190Z,1018.93
2017-01-01T00:29:36.183Z,1018.94
2017-01-01T00:29:46.180Z,1019
2017-01-01T00:29:56.168Z,1019.01
2017-01-01T00:30:06.164Z,1019.01
2017-01-01T00:30:16.157Z,1018.98
2017-01-01T00:30:26.172Z,1018.96
2017-01-01T00:30:36.141Z,1018.98
2017-01-01T00:30:46.138Z,1018.95
2017-01-01T00:30:56.257Z,1018.97
2017-01-01T00:31:06.124Z,1018.97
2017-01-01T00:31:16.114Z,1018.94
2017-01-01T00:31:26.107Z,1018.93
2017-01-01T00:31:36.102Z,1018.92
2017-01-01T00:31:46.097Z,1018.9
2017-01-01T00:31:56.089Z,1018.9
2017-01-01T00:32:06.083Z,1018.89
2017-01-01T00:32:16.080Z,1018.91
2017-01-01T00:32:26.067Z,1018.86
2017-01-01T00:32:36.060Z,1018.89
2017-01-01T00:32:46.056Z,1018.87
2017-01-01T00:32:56.053Z,1018.87
2017-01-01T00:33:06.039Z,1018.85
2017-01-01T00:33:16.036Z,1018.89
2017-01-01T00:33:26.168Z,1018.91
2017-01-01T00:33:36.019Z,1018.86
2017-01-01T00:33:46.016Z,1018.85
2017-01-01T00:33:56.009Z,1018.9
2017-01-01T00:34:05.999Z,1018.84
2017-01-01T00:34:15.999Z,1018.89
2017-01-01T00:34:25.993Z,1018.89
2017-01-01T00:34:35.983Z,1018.84
2017-01-01T00:34:45.975Z,1018.86
2017-01-01T00:34:55.963Z,1018.81
2017-01-01T00:35:05.964Z,1018.86
2017-01-01T00:35:15.957Z,1018.82
2017-01-01T00:35:25.943Z,1018.84
2017-01-01T00:35:35.941Z,1018.77
2017-01-01T00:35:45.933Z,1018.83
2017-01-01T00:35:55.958Z,1018.82
2017-01-01T00:36:05.919Z,1018.82
2017-01-01T00:36:15.914Z,1018.83
2017-01-01T00:36:25.908Z,1018.84
2017-01-01T00:36:35.899Z,1018.8
2017-01-01T00:36:45.890Z,1018.79
2017-01-01T00:36:55.887Z,1018.81
2017-01-01T00:37:05.879Z,1018.79
2017-01-01T00:37:15.873Z,1018.84
2017-01-01T00:37:25.869Z,1018.8
2017-01-01T00:37:35.857Z,1018.81
2017-01-01T00:37:45.854Z,1018.77
2017-01-01T00:37:55.846Z,1018.79
2017-01-01T00:38:05.838Z,1018.79
2017-01-01T00:38:15.831Z,1018.78
2017-01-01T00:38:25.825Z,1018.78
2017-01-01T00:38:35.821Z,1018.81
2017-01-01T00:38:45.811Z,1018.79
2017-01-01T00:38:55.803Z,1018.78
2017-01-01T00:39:05.802Z,1018.82
2017-01-01T00:39:15.794Z,1018.75
2017-01-01T00:39:25.784Z,1018.8
2017-01-01T00:39:35.778Z,1018.78
2017-01-01T00:39:45.773Z,1018.76
2017-01-01T00:39:55.765Z,1018.79
2017-01-01T00:40:05.759Z,1018.78
2017-01-01T00:40:15.754Z,1018.74
2017-01-01T00:40:25.766Z,1018.79
2017-01-01T00:40:35.739Z,1018.76
2017-01-01T00:40:45.729Z,1018.73
2017-01-01T00:40:55.728Z,1018.76
2017-01-01T00:41:05.719Z,1018.79
2017-01-01T00:41:15.711Z,1018.77
2017-01-01T00:41:25.705Z,1018.7
2017-01-01T00:41:35.699Z,1018.74
2017-01-01T00:41:45.691Z,1018.7
2017-01-01T00:41:55.683Z,1018.77
2017-01-01T00:42:05.680Z,1018.74
2017-01-01T00:42:15.671Z,1018.72
2017-01-01T00:42:25.661Z,1018.69
2017-01-01T00:42:35.660Z,1018.73
2017-01-01T00:42:45.794Z,1018.72
2017-01-01T00:42:55.643Z,1018.71
2017-01-01T00:43:05.635Z,1018.68
2017-01-01T00:43:15.632Z,1018.7
2017-01-01T00:43:25.619Z,1018.7
2017-01-01T00:43:35.617Z,1018.66
2017-01-01T00:43:45.611Z,1018.72
2017-01-01T00:43:55.604Z,1018.66
2017-01-01T00:44:05.600Z,1018.67
2017-01-01T00:44:15.590Z,1018.7
2017-01-01T00:44:25.584Z,1018.67
2017-01-01T00:44:35.575Z,1018.69
2017-01-01T00:44:45.569Z,1018.66
2017-01-01T00:44:55.564Z,1018.65
2017-01-01T00:45:05.554Z,1018.64
2017-01-01T00:45:15.551Z,1018.65
2017-01-01T00:45:25.543Z,1018.67
2017-01-01T00:45:35.535Z,1018.65
2017-01-01T00:45:45.530Z,1018.64
2017-01-01T00:45:55.522Z,1018.66
2017-01-01T00:46:05.517Z,1018.66
2017-01-01T00:46:15.511Z,1018.6
2017-01-01T00:46:25.503Z,1018.63
2017-01-01T00:46:35.494Z,1018.69
2017-01-01T00:46:45.487Z,1018.65
2017-01-01T00:46:55.482Z,1018.6
2017-01-01T00:47:05.475Z,1018.57
2017-01-01T00:47:15.469Z,1018.55
2017-01-01T00:47:25.463Z,1018.55
2017-01-01T00:47:35.455Z,1018.54
2017-01-01T00:47:45.444Z,1018.54
2017-01-01T00:47:55.437Z,1018.56
2017-01-01T00:48:05.436Z,1018.59
2017-01-01T00:48:15.428Z,1018.57
2017-01-01T00:48:25.419Z,1018.54
2017-01-01T00:48:35.416Z,1018.54
2017-01-01T00:48:45.405Z,1018.46
2017-01-01T00:48:55.401Z,1018.52
2017-01-01T00:49:05.394Z,1018.56
2017-01-01T00:49:15.387Z,1018.56
2017-01-01T00:49:25.384Z,1018.51
2017-01-01T00:49:35.375Z,1018.51
2017-01-01T00:49:45.369Z,1018.47
2017-01-01T00:49:55.361Z,1018.45
2017-01-01T00:50:05.354Z,1018.52
2017-01-01T00:50:15.349Z,1018.51
2017-01-01T00:50:25.342Z,1018.54
2017-01-01T00:50:35.332Z,1018.5
2017-01-01T00:50:45.328Z,1018.52
2017-01-01T00:50:55.316Z,1018.54
2017-01-01T00:51:05.314Z,1018.49
2017-01-01T00:51:15.311Z,1018.42
2017-01-01T00:51:25.303Z,1018.49
2017-01-01T00:51:35.291Z,1018.46
2017-01-01T00:51:45.283Z,1018.51
2017-01-01T00:51:55.279Z,1018.47
2017-01-01T00:52:05.275Z,1018.5
2017-01-01T00:52:15.267Z,1018.5
2017-01-01T00:52:25.256Z,1018.48
2017-01-01T00:52:35.252Z,1018.5
2017-01-01T00:52:45.244Z,1018.5
2017-01-01T00:52:55.237Z,1018.54
2017-01-01T00:53:05.233Z,1018.53
2017-01-01T00:53:15.226Z,1018.43
2017-01-01T00:53:25.221Z,1018.53
2017-01-01T00:53:35.212Z,1018.44
2017-01-01T00:53:45.203Z,1018.46
2017-01-01T00:53:55.197Z,1018.47
2017-01-01T00:54:05.193Z,1018.43
2017-01-01T00:54:15.187Z,1018.45
2017-01-01T00:54:25.178Z,1018.48
2017-01-01T00:54:35.170Z,1018.45
2017-01-01T00:54:45.167Z,1018.44
2017-01-01T00:54:55.154Z,1018.44
2017-01-01T00:55:05.152Z,1018.43
2017-01-01T00:55:15.145Z,1018.4
2017-01-01T00:55:25.138Z,1018.44
2017-01-01T00:55:35.130Z,1018.37
2017-01-01T00:55:45.126Z,1018.43
2017-01-01T00:55:55.118Z,1018.41
2017-01-01T00:56:05.110Z,1018.4
2017-01-01T00:56:15.102Z,1018.36
2017-01-01T00:56:25.099Z,1018.32
2017-01-01T00:56:35.093Z,1018.37
2017-01-01T00:56:45.083Z,1018.38
2017-01-01T00:56:55.104Z,1018.44
2017-01-01T00:57:05.077Z,1018.42
2017-01-01T00:57:15.064Z,1018.38
2017-01-01T00:57:25.060Z,1018.44
2017-01-01T00:57:35.052Z,1018.38
2017-01-01T00:57:45.041Z,1018.36
2017-01-01T00:57:55.035Z,1018.43
2017-01-01T00:58:05.031Z,1018.38
2017-01-01T00:58:15.021Z,1018.43
2017-01-01T00:58:25.015Z,1018.43
2017-01-01T00:58:35.012Z,1018.42
2017-01-01T00:58:45.001Z,1018.4
2017-01-01T00:58:54.993Z,1018.43
2017-01-01T00:59:04.988Z,1018.35
2017-01-01T00:59:14.982Z,1018.44
2017-01-01T00:59:24.976Z,1018.36
2017-01-01T00:59:34.972Z,1018.35
2017-01-01T00:59:44.960Z,1018.38
2017-01-01T00:59:54.954Z,1018.35
2017-01-01T01:00:04.948Z,1018.36
2017-01-01T01:00:14.943Z,1018.39
2017-01-01T01:00:24.935Z,1018.36
2017-01-01T01:00:34.931Z,1018.34
2017-01-01T01:00:44.923Z,1018.36
2017-01-01T01:00:54.941Z,1018.4
2017-01-01T01:01:04.910Z,1018.38
2017-01-01T01:01:14.902Z,1018.46
2017-01-01T01:01:24.896Z,1018.33
2017-01-01T01:01:34.891Z,1018.39
2017-01-01T01:01:44.877Z,1018.32
2017-01-01T01:01:54.875Z,1018.36
2017-01-01T01:02:04.868Z,1018.35
2017-01-01T01:02:14.860Z,1018.41
2017-01-01T01:02:24.855Z,1018.39
2017-01-01T01:02:34.848Z,1018.41
2017-01-01T01:02:44.840Z,1018.41
2017-01-01T01:02:54.831Z,1018.37
2017-01-01T01:03:04.822Z,1018.38
2017-01-01T01:03:14.818Z,1018.46
2017-01-01T01:03:24.811Z,1018.37
2017-01-01T01:03:34.808Z,1018.41
2017-01-01T01:03:44.795Z,1018.4
2017-01-01T01:03:54.789Z,1018.4
2017-01-01T01:04:04.787Z,1018.38
2017-01-01T01:04:14.804Z,1018.39
2017-01-01T01:04:24.774Z,1018.34
2017-01-01T01:04:34.763Z,1018.39
2017-01-01T01:04:44.762Z,1018.31
2017-01-01T01:04:54.750Z,1018.35
2017-01-01T01:05:04.747Z,1018.39
2017-01-01T01:05:14.737Z,1018.41
2017-01-01T01:05:24.730Z,1018.39
2017-01-01T01:05:35.148Z,1018.41
2017-01-01T01:05:44.715Z,1018.35
2017-01-01T01:05:54.711Z,1018.34
2017-01-01T01:06:04.707Z,1018.37
2017-01-01T01:06:14.698Z,1018.37
2017-01-01T01:06:24.691Z,1018.41
2017-01-01T01:06:34.819Z,1018.34
2017-01-01T01:06:44.678Z,1018.33
2017-01-01T01:06:54.672Z,1018.37
2017-01-01T01:07:04.663Z,1018.37
2017-01-01T01:07:14.795Z,1018.37
2017-01-01T01:07:24.650Z,1018.35
2017-01-01T01:07:34.643Z,1018.34
2017-01-01T01:07:44.635Z,1018.36
2017-01-01T01:07:54.632Z,1018.31
2017-01-01T01:08:04.623Z,1018.32
2017-01-01T01:08:14.616Z,1018.36
2017-01-01T01:08:24.610Z,1018.39
2017-01-01T01:08:34.603Z,1018.34
2017-01-01T01:08:44.595Z,1018.37
2017-01-01T01:08:54.588Z,1018.35
2017-01-01T01:09:04.586Z,1018.34
2017-01-01T01:09:14.574Z,1018.29
2017-01-01T01:09:24.570Z,1018.34
2017-01-01T01:09:34.565Z,1018.33
2017-01-01T01:09:44.589Z,1018.36
2017-01-01T01:09:54.548Z,1018.36
2017-01-01T01:10:04.539Z,1018.36
2017-01-01T01:10:14.534Z,1018.36
2017-01-01T01:10:24.529Z,1018.3
2017-01-01T01:10:34.524Z,1018.3
2017-01-01T01:10:44.516Z,1018.34
2017-01-01T01:10:54.509Z,1018.25
2017-01-01T01:11:04.502Z,1018.27
2017-01-01T01:11:14.496Z,1018.29
2017-01-01T01:11:24.489Z,1018.33
2017-01-01T01:11:34.483Z,1018.3
2017-01-01T01:11:44.472Z,1018.32
2017-01-01T01:11:54.470Z,1018.27
2017-01-01T01:12:04.460Z,1018.3
2017-01-01T01:12:14.454Z,1018.28
2017-01-01T01:12:24.450Z,1018.28
2017-01-01T01:12:34.440Z,1018.23
2017-01-01T01:12:44.435Z,1018.22
2017-01-01T01:12:54.426Z,1018.23
2017-01-01T01:13:04.555Z,1018.25
2017-01-01T01:13:14.411Z,1018.27
2017-01-01T01:13:24.405Z,1018.27
2017-01-01T01:13:34.400Z,1018.24
2017-01-01T01:13:44.393Z,1018.28
2017-01-01T01:13:54.388Z,1018.29
2017-01-01T01:14:04.378Z,1018.32
2017-01-01T01:14:14.375Z,1018.29
2017-01-01T01:14:24.366Z,1018.29
2017-01-01T01:14:34.359Z,1018.28
2017-01-01T01:14:44.353Z,1018.28
2017-01-01T01:14:54.344Z,1018.22
2017-01-01T01:15:04.339Z,1018.31
2017-01-01T01:15:14.332Z,1018.27
2017-01-01T01:15:24.322Z,1018.32
2017-01-01T01:15:34.317Z,1018.29
2017-01-01T01:15:44.320Z,1018.25
2017-01-01T01:15:54.305Z,1018.3
2017-01-01T01:16:04.299Z,1018.34
2017-01-01T01:16:14.291Z,1018.34
2017-01-01T01:16:24.283Z,1018.24
2017-01-01T01:16:34.281Z,1018.31
2017-01-01T01:16:44.275Z,1018.37
2017-01-01T01:16:54.262Z,1018.38
2017-01-01T01:17:04.678Z,1018.43
2017-01-01T01:17:14.249Z,1018.4
2017-01-01T01:17:24.244Z,1018.42
2017-01-01T01:17:34.237Z,1018.42
2017-01-01T01:17:44.233Z,1018.4
2017-01-01T01:17:54.224Z,1018.43
2017-01-01T01:18:04.216Z,1018.47
2017-01-01T01:18:14.211Z,1018.45
2017-01-01T01:18:24.206Z,1018.44
2017-01-01T01:18:34.329Z,1018.48
2017-01-01T01:18:44.190Z,1018.48
2017-01-01T01:18:54.185Z,1018.44
2017-01-01T01:19:04.178Z,1018.42
2017-01-01T01:19:14.168Z,1018.44
2017-01-01T01:19:24.161Z,1018.42
2017-01-01T01:19:34.156Z,1018.48
2017-01-01T01:19:44.150Z,1018.4
2017-01-01T01:19:54.145Z,1018.37
2017-01-01T01:20:04.137Z,1018.33
2017-01-01T01:20:14.129Z,1018.33
2017-01-01T01:20:24.122Z,1018.38
2017-01-01T01:20:34.113Z,1018.38
2017-01-01T01:20:44.110Z,1018.35
2017-01-01T01:20:54.102Z,1018.35
2017-01-01T01:21:04.097Z,1018.33
2017-01-01T01:21:14.085Z,1018.33
2017-01-01T01:21:24.079Z,1018.31
2017-01-01T01:21:34.077Z,1018.33
2017-01-01T01:21:44.068Z,1018.33
2017-01-01T01:21:54.067Z,1018.31
2017-01-01T01:22:04.053Z,1018.35
2017-01-01T01:22:14.053Z,1018.3
2017-01-01T01:22:24.485Z,1018.31
2017-01-01T01:22:34.033Z,1018.36
2017-01-01T01:22:44.026Z,1018.32
2017-01-01T01:22:54.019Z,1018.37
2017-01-01T01:23:04.014Z,1018.35
2017-01-01T01:23:14.008Z,1018.37
2017-01-01T01:23:23.998Z,1018.37
2017-01-01T01:23:33.995Z,1018.33
2017-01-01T01:23:43.991Z,1018.34
2017-01-01T01:23:53.983Z,1018.36
2017-01-01T01:24:03.975Z,1018.35
2017-01-01T01:24:13.966Z,1018.29
2017-01-01T01:24:23.958Z,1018.31
2017-01-01T01:24:33.959Z,1018.3
2017-01-01T01:24:43.970Z,1018.32
2017-01-01T01:24:53.939Z,1018.26
2017-01-01T01:25:03.933Z,1018.28
2017-01-01T01:25:13.924Z,1018.23
2017-01-01T01:25:23.948Z,1018.24
2017-01-01T01:25:33.911Z,1018.25
2017-01-01T01:25:43.906Z,1018.21
2017-01-01T01:25:53.897Z,1018.2
2017-01-01T01:26:03.892Z,1018.2
2017-01-01T01:26:13.885Z,1018.23
2017-01-01T01:26:23.901Z,1018.23
2017-01-01T01:26:33.872Z,1018.22
2017-01-01T01:26:43.863Z,1018.23
2017-01-01T01:26:53.859Z,1018.22
2017-01-01T01:27:03.855Z,1018.19
2017-01-01T01:27:13.846Z,1018.19
2017-01-01T01:27:23.837Z,1018.2
2017-01-01T01:27:33.830Z,1018.19
2017-01-01T01:27:43.824Z,1018.21
2017-01-01T01:27:53.815Z,1018.22
2017-01-01T01:28:03.812Z,1018.23
2017-01-01T01:28:13.801Z,1018.24
2017-01-01T01:28:23.795Z,1018.23
2017-01-01T01:28:33.789Z,1018.2
2017-01-01T01:28:43.808Z,1018.19
2017-01-01T01:28:53.776Z,1018.25
2017-01-01T01:29:03.767Z,1018.19
2017-01-01T01:29:13.766Z,1018.2
2017-01-01T01:29:23.754Z,1018.23
2017-01-01T01:29:33.749Z,1018.26
2017-01-01T01:29:43.742Z,1018.24
2017-01-01T01:29:53.734Z,1018.21
2017-01-01T01:30:03.727Z,1018.25
2017-01-01T01:30:13.722Z,1018.22
2017-01-01T01:30:23.713Z,1018.27
2017-01-01T01:30:33.708Z,1018.24
2017-01-01T01:30:43.701Z,1018.23
2017-01-01T01:30:53.694Z,1018.27
2017-01-01T01:31:03.688Z,1018.16
2017-01-01T01:31:13.681Z,1018.18
2017-01-01T01:31:23.671Z,1018.15
2017-01-01T01:31:33.666Z,1018.24
2017-01-01T01:31:43.664Z,1018.15
2017-01-01T01:31:53.653Z,1018.24
2017-01-01T01:32:03.648Z,1018.21
2017-01-01T01:32:13.638Z,1018.18
2017-01-01T01:32:23.635Z,1018.22
2017-01-01T01:32:33.629Z,1018.18
2017-01-01T01:32:43.622Z,1018.18
2017-01-01T01:32:53.611Z,1018.24
2017-01-01T01:33:03.607Z,1018.19
2017-01-01T01:33:13.603Z,1018.2
2017-01-01T01:33:23.592Z,1018.23
2017-01-01T01:33:33.587Z,1018.21
2017-01-01T01:33:43.583Z,1018.24
2017-01-01T01:33:53.572Z,1018.24
2017-01-01T01:34:03.569Z,1018.24
2017-01-01T01:34:13.558Z,1018.25
2017-01-01T01:34:23.549Z,1018.23
2017-01-01T01:34:33.544Z,1018.28
2017-01-01T01:34:43.537Z,1018.27
2017-01-01T01:34:53.532Z,1018.31
2017-01-01T01:35:03.527Z,1018.33
2017-01-01T01:35:13.514Z,1018.34
2017-01-01T01:35:23.511Z,1018.3
2017-01-01T01:35:33.504Z,1018.24
2017-01-01T01:35:43.498Z,1018.29
2017-01-01T01:35:53.493Z,1018.3
2017-01-01T01:36:03.487Z,1018.28
2017-01-01T01:36:13.475Z,1018.26
2017-01-01T01:36:23.470Z,1018.28
2017-01-01T01:36:33.463Z,1018.26
2017-01-01T01:36:43.457Z,1018.27
2017-01-01T01:36:53.451Z,1018.28
2017-01-01T01:37:03.445Z,1018.24
2017-01-01T01:37:13.436Z,1018.25
2017-01-01T01:37:23.425Z,1018.24
2017-01-01T01:37:33.423Z,1018.24
2017-01-01T01:37:43.415Z,1018.28
2017-01-01T01:37:53.410Z,1018.22
2017-01-01T01:38:03.403Z,1018.3
2017-01-01T01:38:13.394Z,1018.24
2017-01-01T01:38:23.387Z,1018.28
2017-01-01T01:38:33.384Z,1018.18
2017-01-01T01:38:43.377Z,1018.22
2017-01-01T01:38:53.379Z,1018.26
2017-01-01T01:39:03.361Z,1018.23
2017-01-01T01:39:13.359Z,1018.24
2017-01-01T01:39:23.352Z,1018.23
2017-01-01T01:39:33.343Z,1018.27
2017-01-01T01:39:43.334Z,1018.22
2017-01-01T01:39:53.330Z,1018.25
2017-01-01T01:40:03.325Z,1018.2
2017-01-01T01:40:13.311Z,1018.21
2017-01-01T01:40:23.311Z,1018.16
2017-01-01T01:40:33.303Z,1018.19
2017-01-01T01:40:43.294Z,1018.17
2017-01-01T01:40:53.287Z,1018.15
2017-01-01T01:41:03.279Z,1018.21
2017-01-01T01:41:13.279Z,1018.17
2017-01-01T01:41:23.263Z,1018.18
2017-01-01T01:41:33.260Z,1018.25
2017-01-01T01:41:43.260Z,1018.15
2017-01-01T01:41:53.248Z,1018.15
2017-01-01T01:42:03.240Z,1018.15
2017-01-01T01:42:13.232Z,1018.14
2017-01-01T01:42:23.227Z,1018.25
2017-01-01T01:42:33.221Z,1018.19
2017-01-01T01:42:43.215Z,1018.18
2017-01-01T01:42:53.206Z,1018.17
2017-01-01T01:43:03.202Z,1018.19
2017-01-01T01:43:13.192Z,1018.22
2017-01-01T01:43:23.184Z,1018.19
2017-01-01T01:43:33.177Z,1018.16
2017-01-01T01:43:43.169Z,1018.19
2017-01-01T01:43:53.165Z,1018.14
2017-01-01T01:44:03.157Z,1018.24
2017-01-01T01:44:13.154Z,1018.17
2017-01-01T01:44:23.142Z,1018.18
2017-01-01T01:44:33.136Z,1018.18
2017-01-01T01:44:43.128Z,1018.2
2017-01-01T01:44:53.126Z,1018.19
2017-01-01T01:45:03.119Z,1018.14
2017-01-01T01:45:13.112Z,1018.19
2017-01-01T01:45:23.106Z,1018.19
2017-01-01T01:45:33.094Z,1018.15
2017-01-01T01:45:43.093Z,1018.17
2017-01-01T01:45:53.082Z,1018.16
2017-01-01T01:46:03.081Z,1018.2
2017-01-01T01:46:13.203Z,1018.21
2017-01-01T01:46:23.061Z,1018.15
2017-01-01T01:46:33.057Z,1018.15
2017-01-01T01:46:43.053Z,1018.2
2017-01-01T01:46:53.042Z,1018.17
2017-01-01T01:47:03.036Z,1018.18
2017-01-01T01:47:13.029Z,1018.19
2017-01-01T01:47:23.024Z,1018.17
2017-01-01T01:47:33.017Z,1018.12
2017-01-01T01:47:43.012Z,1018.18
2017-01-01T01:47:53.004Z,1018.2
2017-01-01T01:48:02.995Z,1018.2
2017-01-01T01:48:12.989Z,1018.17
2017-01-01T01:48:22.980Z,1018.14
2017-01-01T01:48:32.974Z,1018.14
2017-01-01T01:48:42.967Z,1018.19
2017-01-01T01:48:52.962Z,1018.13
2017-01-01T01:49:02.956Z,1018.14
2017-01-01T01:49:12.950Z,1018.08
2017-01-01T01:49:22.939Z,1018.1
2017-01-01T01:49:32.932Z,1018.13
2017-01-01T01:49:42.924Z,1018.12
2017-01-01T01:49:52.924Z,1018.08
2017-01-01T01:50:02.915Z,1018.09
2017-01-01T01:50:12.906Z,1018.13
2017-01-01T01:50:22.896Z,1018.13
2017-01-01T01:50:32.894Z,1018.13
2017-01-01T01:50:42.885Z,1018.1
2017-01-01T01:50:52.881Z,1018.09
2017-01-01T01:51:03.314Z,1018.12
2017-01-01T01:51:12.865Z,1018.07
2017-01-01T01:51:22.989Z,1018.07
2017-01-01T01:51:32.851Z,1018.05
2017-01-01T01:51:42.843Z,1018.06
2017-01-01T01:51:52.841Z,1018.05
2017-01-01T01:52:02.829Z,1018.07
2017-01-01T01:52:12.823Z,1017.97
2017-01-01T01:52:22.819Z,1018.01
2017-01-01T01:52:32.809Z,1018.02
2017-01-01T01:52:42.807Z,1017.98
2017-01-01T01:52:52.800Z,1018.01
2017-01-01T01:53:02.792Z,1017.98
2017-01-01T01:53:12.788Z,1017.99
2017-01-01T01:53:22.781Z,1018.03
2017-01-01T01:53:32.770Z,1017.99
2017-01-01T01:53:42.762Z,1017.96
2017-01-01T01:53:52.756Z,1017.94
2017-01-01T01:54:02.751Z,1018.01
2017-01-01T01:54:12.741Z,1017.98
2017-01-01T01:54:22.735Z,1017.97
2017-01-01T01:54:32.731Z,1018.01
2017-01-01T01:54:42.761Z,1017.98
2017-01-01T01:54:52.718Z,1017.96
2017-01-01T01:55:02.712Z,1017.97
2017-01-01T01:55:12.701Z,1017.97
2017-01-01T01:55:22.696Z,1018.01
2017-01-01T01:55:32.689Z,1017.99
2017-01-01T01:55:42.684Z,1017.97
2017-01-01T01:55:52.675Z,1018
2017-01-01T01:56:02.672Z,1017.96
2017-01-01T01:56:12.660Z,1017.92
2017-01-01T01:56:22.658Z,1018.01
2017-01-01T01:56:32.780Z,1017.98
2017-01-01T01:56:42.640Z,1017.94
2017-01-01T01:56:52.639Z,1017.95
2017-01-01T01:57:02.628Z,1017.91
2017-01-01T01:57:12.621Z,1017.92
2017-01-01T01:57:22.619Z,1017.89
2017-01-01T01:57:32.605Z,1017.91
2017-01-01T01:57:42.605Z,1017.94
2017-01-01T01:57:52.727Z,1017.91
2017-01-01T01:58:02.586Z,1017.87
2017-01-01T01:58:12.580Z,1017.89
2017-01-01T01:58:22.574Z,1017.83
2017-01-01T01:58:32.566Z,1017.85
2017-01-01T01:58:42.560Z,1017.86
2017-01-01T01:58:52.575Z,1017.89
2017-01-01T01:59:02.548Z,1017.91
2017-01-01T01:59:12.547Z,1017.84
2017-01-01T01:59:22.532Z,1017.8
2017-01-01T01:59:32.548Z,1017.83
2017-01-01T01:59:42.525Z,1017.8
2017-01-01T01:59:52.512Z,1017.86
2017-01-01T02:00:02.507Z,1017.82
2017-01-01T02:00:12.500Z,1017.81
2017-01-01T02:00:22.501Z,1017.78
2017-01-01T02:00:32.483Z,1017.81
2017-01-01T02:00:42.478Z,1017.82
2017-01-01T02:00:52.475Z,1017.84
2017-01-01T02:01:02.463Z,1017.79
2017-01-01T02:01:12.457Z,1017.74
2017-01-01T02:01:22.455Z,1017.77